Stations météo

réclame
Mon MeteoGroup
Stockholm/Tullinge, Suède (2469): Température de l'air & dewpoint: 14.11.2018 12:00:00 - 20.11.2018 12:00:00 (CET)Stockholm/Tullinge, Suède (2469): Vitesse du vent & gusts: 14.11.2018 12:00:00 - 20.11.2018 12:00:00 (CET)Stockholm/Tullinge, Suède (2469): Direction du vent: 14.11.2018 12:00:00 - 20.11.2018 12:00:00 (CET)Stockholm/Tullinge, Suède (2469): visibility: 14.11.2018 12:00:00 - 20.11.2018 12:00:00 (CET)Stockholm/Tullinge, Suède (2469): Quantités de précipitations: 14.11.2018 12:00:00 - 20.11.2018 12:00:00 (CET)
Date & Time tt [°C] td [°C] ff [km/h] ff [knt] fx [km/h] fx [knt] dd vv [km] rr [mm]
20.11.2018 12:00:00 2,1 0,2 8 4 11 6 N 46 0,0
20.11.2018 11:00:00 1,5 -0,6 3 2 8 4 WNW 35 0,0
20.11.2018 10:00:00 1,1 -1,0 0 0 10 5 N 32 0,0
20.11.2018 09:00:00 0,6 -0,9 8 4 12 7 NNW 29 0,0
20.11.2018 08:00:00 0,3 -1,3 3 1 8 5 NNW 39 0,0
20.11.2018 07:00:00 0,3 -1,3 4 2 11 6 NNW 40 0,0
20.11.2018 06:00:00 0,1 -1,3 6 3 12 7 NNW 35 0,0
20.11.2018 05:00:00 0,1 -0,9 0 0 9 5 N 28 0,0
20.11.2018 04:00:00 -0,1 -0,5 3 2 8 4 N 8 0,0
20.11.2018 03:00:00 0,4 -0,3 4 2 12 6 N 18 0,0
20.11.2018 02:00:00 0,6 -0,5 0 0 10 5 N 13 0,0
20.11.2018 01:00:00 0,6 -0,7 8 4 11 6 N 12 0,0
20.11.2018 00:00:00 0,5 -0,4 0 0 6 4 N 9 0,2
19.11.2018 23:00:00 0,5 -0,5 0 0 9 5 N 11 0,0
19.11.2018 22:00:00 1,2 -0,7 0 0 11 6 N 35 0,0
19.11.2018 21:00:00 0,7 -1,2 0 0 9 5 N 18 0,0
19.11.2018 20:00:00 0,7 -1,2 0 0 13 7 N 48 0,0
19.11.2018 19:00:00 0,6 -1,5 0 0 10 6 N 45 0,0
19.11.2018 18:00:00 0,4 -2,0 2 1 13 7 NNE 50 0,0
19.11.2018 17:00:00 0,5 -1,9 0 0 11 6 N 50 0,0
19.11.2018 16:00:00 1,0 -1,7 6 3 11 6 NNE 50 0,0
19.11.2018 15:00:00 1,7 -1,7 9 5 16 8 NNE 50 0,0
19.11.2018 14:00:00 2,7 -1,5 6 3 19 10 NNE 50 0,0
19.11.2018 13:00:00 2,5 -1,8 10 5 21 11 NNE 50 0,0
19.11.2018 12:00:00 2,9 -2,0 12 6 27 15 NNE 47 0,0
19.11.2018 11:00:00 2,5 -2,0 16 8 27 14 NNE 50 0,0
19.11.2018 10:00:00 2,3 -2,2 6 4 19 10 NNE 50 0,0
19.11.2018 09:00:00 1,9 -1,9 0 0 20 11 N 50 0,0
19.11.2018 08:00:00 1,9 -2,2 8 4 25 13 NNE 50 0,0
19.11.2018 07:00:00 2,0 -2,1 12 7 23 12 NNE 50 0,0
19.11.2018 06:00:00 2,2 -1,6 9 5 20 11 NNE 50 0,0
19.11.2018 05:00:00 2,2 -1,8 5 3 22 12 N 50 0,0
19.11.2018 04:00:00 2,5 -1,3 11 6 16 9 N 50 0,0
19.11.2018 03:00:00 2,6 -1,4 3 2 20 11 NNE 50 0,0
19.11.2018 02:00:00 2,8 -1,2 0 0 23 12 N 50 0,0
19.11.2018 01:00:00 3,0 -1,4 11 6 24 13 NNE 50 0,0
19.11.2018 00:00:00 3,3 -1,1 11 6 25 13 NNE 50 0,0
18.11.2018 23:00:00 3,5 -0,7 9 5 27 14 NNE 50 0,0
18.11.2018 22:00:00 3,8 -0,2 8 4 25 13 NNE 50 0,0
18.11.2018 21:00:00 3,9 -0,3 16 9 35 19 NNE 50 0,0
18.11.2018 20:00:00 4,0 -0,6 20 11 38 20 NNE 50 0,0
18.11.2018 19:00:00 3,8 -0,2 22 12 39 21 NNE 50 0,0
18.11.2018 18:00:00 4,0 -0,4 23 13 42 23 N 50 0,0
18.11.2018 17:00:00 4,7 0,6 22 12 39 21 N 50 0,0
18.11.2018 16:00:00 5,1 1,0 16 8 35 19 N 50 0,0
18.11.2018 15:00:00 5,6 1,3 22 12 39 21 N 50 0,0
18.11.2018 14:00:00 6,0 1,1 19 10 37 20 NNE 50 0,0
18.11.2018 13:00:00 6,0 1,9 21 11 38 20 N 50 0,0
18.11.2018 12:00:00 6,1 2,4 13 7 36 19 NNE 50 0,0
18.11.2018 11:00:00 6,0 2,6 18 10 42 23 NNE 50 0,0
18.11.2018 10:00:00 6,1 2,7 21 12 38 21 NNE 50 0,0
18.11.2018 09:00:00 5,8 3,5 17 9 30 16 N 50 0,0
18.11.2018 08:00:00 5,3 3,5 15 8 31 17 N 50 0,0
18.11.2018 07:00:00 4,7 3,2 17 9 33 18 N 50 0,0
18.11.2018 06:00:00 4,5 3,0 21 11 40 22 N 50 0,0
18.11.2018 05:00:00 3,7 2,5 16 9 27 14 N 50 0,0
18.11.2018 04:00:00 3,1 2,2 10 5 24 13 N 50 0,0
18.11.2018 03:00:00 3,5 2,5 18 10 28 15 NNW 48 0,0
18.11.2018 02:00:00 3,3 2,4 13 7 20 11 NNW 39 0,0
18.11.2018 01:00:00 3,3 2,4 12 6 17 9 NNW 36 0,0
18.11.2018 00:00:00 3,4 3,0 8 4 13 7 N 30 0,0
17.11.2018 23:00:00 1,1 1,1 6 4 13 7 NNW 8 0,0
17.11.2018 22:00:00 -0,1 -0,1 0 0 4 2 N 2,1 0,0
17.11.2018 21:00:00 0,6 0,6 0 0 4 2 N 0,4 0,0
17.11.2018 20:00:00 1,4 1,3 3 2 6 4 WSW 0,3 0,0
17.11.2018 19:00:00 2,9 2,9 0 0 12 7 N 0,3 0,0
17.11.2018 18:00:00 3,1 3,1 8 4 12 6 W 3,6 0,0
17.11.2018 17:00:00 3,3 3,3 8 4 12 7 W 4,0 0,0
17.11.2018 16:00:00 4,3 3,9 6 3 11 6 W 8 0,0
17.11.2018 15:00:00 5,8 4,8 7 4 13 7 W 16 0,0
17.11.2018 14:00:00 6,6 4,9 8 4 18 10 WNW 18 0,0
17.11.2018 13:00:00 7,0 5,0 11 6 18 10 WNW 22 0,0
17.11.2018 12:00:00 6,8 5,1 8 4 15 8 WSW 20 0,0
17.11.2018 11:00:00 6,4 5,2 9 5 19 10 W 16 0,0
17.11.2018 10:00:00 6,0 5,0 10 5 14 8 WSW 16 0,0
17.11.2018 09:00:00 5,7 4,7 10 5 16 8 W 15 0,0
17.11.2018 08:00:00 5,3 4,4 10 5 16 8 WSW 14 0,0
17.11.2018 07:00:00 5,0 4,3 12 6 18 10 WSW 12 0,0
17.11.2018 06:00:00 4,6 3,9 11 6 19 11 WSW 12 0,0
17.11.2018 05:00:00 4,6 3,9 11 6 21 11 WSW 12 0,0
17.11.2018 04:00:00 3,8 3,5 8 4 16 9 W 10 0,0
17.11.2018 03:00:00 4,2 3,6 10 5 19 11 SW 14 0,0
17.11.2018 02:00:00 3,4 3,0 7 4 13 7 SW 12 0,0
17.11.2018 01:00:00 3,7 3,3 6 3 15 8 SW 14 0,0
17.11.2018 00:00:00 3,8 3,2 10 5 16 9 SW 16 0,0
16.11.2018 23:00:00 4,1 3,4 8 4 16 9 WSW 19 0,0
16.11.2018 22:00:00 4,9 3,7 10 5 22 12 SW 27 0,0
16.11.2018 21:00:00 5,2 4,0 11 6 19 10 SW 26 0,0
16.11.2018 20:00:00 5,6 4,4 10 5 17 9 SSW 26 0,0
16.11.2018 19:00:00 5,5 4,3 8 5 16 9 SSW 21 0,0
16.11.2018 18:00:00 5,5 4,8 7 4 17 9 S 16 0,0
16.11.2018 17:00:00 5,7 4,8 10 6 19 10 S 19 0,0
16.11.2018 16:00:00 6,1 4,9 11 6 23 12 S 20 0,0
16.11.2018 15:00:00 6,8 5,3 13 7 28 15 SSW 26 0,0
16.11.2018 14:00:00 7,9 5,7 10 5 24 13 SSW 33 0,0
16.11.2018 13:00:00 9,0 5,2 14 7 27 15 SW 50 0,0
16.11.2018 12:00:00 8,6 5,3 13 7 24 13 SW 40 0,0
16.11.2018 11:00:00 8,4 6,0 14 8 27 15 SW 38 0,0
16.11.2018 10:00:00 7,8 6,1 14 8 24 13 SSW 25 0,0
16.11.2018 09:00:00 7,1 6,5 9 5 21 11 SSW 11 0,0
16.11.2018 08:00:00 6,9 6,8 9 5 16 9 SSW 7 0,0
16.11.2018 07:00:00 6,9 6,9 5 3 14 8 S 4,8 0,0
16.11.2018 06:00:00 6,2 6,2 4 2 8 4 SSE 2,3 0,0
16.11.2018 05:00:00 7,3 6,7 3 2 13 7 SSW 10 0,0
16.11.2018 04:00:00 7,7 7,3 5 3 14 8 SSW 11 0,0
16.11.2018 03:00:00 8,1 7,3 7 4 21 11 SW 15 0,0
16.11.2018 02:00:00 9,1 7,7 11 6 19 10 SW 18 0,0
16.11.2018 01:00:00 8,9 7,8 13 7 20 11 SW 19 0,0
16.11.2018 00:00:00 7,7 7,1 10 5 16 9 SW 16 0,0
15.11.2018 23:00:00 7,4 7,1 6 3 13 7 SSW 15 0,0
15.11.2018 22:00:00 7,7 7,4 6 3 24 13 SSW 14 0,0
15.11.2018 21:00:00 8,4 7,8 9 5 15 8 SW 17 0,0
15.11.2018 20:00:00 8,3 7,7 11 6 19 10 SW 14 0,0
15.11.2018 19:00:00 8,3 7,9 10 5 18 10 SSW 12 0,0
15.11.2018 18:00:00 8,3 8,0 13 7 23 12 SSW 11 0,0
15.11.2018 17:00:00 8,0 7,9 11 6 24 13 SSW 5 0,0
15.11.2018 16:00:00 7,8 7,7 13 7 21 11 SSW 5 0,0
15.11.2018 15:00:00 7,9 7,6 12 6 20 11 SSW 5 0,0
15.11.2018 14:00:00 7,9 7,3 12 7 22 12 SSW 4,7 0,0
15.11.2018 13:00:00 8,5 7,4 11 6 23 12 SSW 28 0,0
15.11.2018 12:00:00 8,9 7,5 13 7 22 12 S 34 0,0
15.11.2018 11:00:00 8,3 7,4 12 7 21 11 SSW 26 0,0
15.11.2018 10:00:00 7,7 6,9 11 6 19 10 S 25 0,0
15.11.2018 09:00:00 6,5 6,4 10 5 17 9 S 15 0,0
15.11.2018 08:00:00 5,6 5,6 4 2 13 7 S 11 0,0
15.11.2018 07:00:00 5,6 5,6 5 3 11 6 S 7 0,0
15.11.2018 06:00:00 5,3 5,3 10 6 17 9 SW 4,4 0,0
15.11.2018 05:00:00 3,5 3,5 2 1 9 5 SW 1,2 0,0
15.11.2018 04:00:00 2,9 2,9 4 2 10 6 S 7 0,0
15.11.2018 03:00:00 2,6 2,6 0 0 7 4 N 0,7 0,0
15.11.2018 02:00:00 3,1 3,1 4 2 5 3 SSE 0,8 0,0
15.11.2018 01:00:00 4,5 4,1 3 1 9 5 SSE 15 0,0
15.11.2018 00:00:00 5,6 5,2 3 2 6 3 S 47 0,0
14.11.2018 23:00:00 5,3 5,3 4 2 5 3 S 44 0,0
14.11.2018 22:00:00 4,2 4,1 4 2 7 4 SW 11 0,0
14.11.2018 21:00:00 6,5 5,1 7 4 12 7 SW 50 0,0
14.11.2018 20:00:00 5,7 5,0 3 2 8 5 SW 38 0,0
14.11.2018 19:00:00 6,8 5,4 6 3 14 8 SW 50 0,0
14.11.2018 18:00:00 7,3 5,8 8 5 14 7 SW 50 0,0
14.11.2018 17:00:00 7,3 5,9 8 5 12 7 WSW 50 0,0
14.11.2018 16:00:00 7,5 5,8 6 4 11 6 SW 50 0,0
14.11.2018 15:00:00 7,5 6,0 5 3 20 11 WSW 50 0,0
14.11.2018 14:00:00 7,7 5,7 12 7 22 12 W 50 0,0
14.11.2018 13:00:00 8,0 6,1 12 6 19 10 W 50 0,0
14.11.2018 12:00:00 7,9 6,0 10 6 19 10 WNW 50 0,0

tt = Température de l'air
td = dewpoint
ff = Vitesse du vent
fx = gusts
dd = Direction du vent
vv = visibility
rr = Quantités de précipitations

stations d'obs. à proximité